sensor_id;sensor_type;location;lat;lon;timestamp;pressure;altitude;pressure_sealevel;temperature;humidity
26839;BME280;40088;51.214;6.786;2023-02-26T00:07:10;101358.78;;;17.29;45.34
26839;BME280;40088;51.214;6.786;2023-02-26T00:17:40;101365.16;;;17.30;44.86
26839;BME280;40088;51.214;6.786;2023-02-26T00:27:42;101382.72;;;17.29;44.92
26839;BME280;40088;51.214;6.786;2023-02-26T00:48:29;101401.34;;;17.27;45.04
26839;BME280;40088;51.214;6.786;2023-02-26T00:58:32;101407.72;;;17.27;44.87
26839;BME280;40088;51.214;6.786;2023-02-26T01:19:07;101405.81;;;17.28;44.97
26839;BME280;40088;51.214;6.786;2023-02-26T01:29:14;101432.66;;;17.26;45.23
26839;BME280;40088;51.214;6.786;2023-02-26T01:39:27;101430.75;;;17.26;45.06
26839;BME280;40088;51.214;6.786;2023-02-26T01:49:31;101427.16;;;17.26;44.92
26839;BME280;40088;51.214;6.786;2023-02-26T01:59:34;101443.84;;;17.24;45.05
26839;BME280;40088;51.214;6.786;2023-02-26T02:09:36;101450.22;;;17.25;44.97
26839;BME280;40088;51.214;6.786;2023-02-26T02:20:05;101463.13;;;17.24;44.70
26839;BME280;40088;51.214;6.786;2023-02-26T02:30:27;101470.53;;;17.24;44.83
26839;BME280;40088;51.214;6.786;2023-02-26T02:40:34;101478.81;;;17.24;44.81
26839;BME280;40088;51.214;6.786;2023-02-26T02:50:39;101491.72;;;17.23;44.80
26839;BME280;40088;51.214;6.786;2023-02-26T03:00:47;101511.19;;;17.22;44.94
26839;BME280;40088;51.214;6.786;2023-02-26T03:10:48;101510.16;;;17.23;44.82
26839;BME280;40088;51.214;6.786;2023-02-26T03:21:05;101519.47;;;17.22;44.62
26839;BME280;40088;51.214;6.786;2023-02-26T03:31:51;101537.00;;;17.21;44.83
26839;BME280;40088;51.214;6.786;2023-02-26T03:42:07;101566.28;;;17.22;44.85
26839;BME280;40088;51.214;6.786;2023-02-26T03:52:10;101568.84;;;17.23;44.66
26839;BME280;40088;51.214;6.786;2023-02-26T04:02:17;101571.94;;;17.20;44.77
26839;BME280;40088;51.214;6.786;2023-02-26T04:12:23;101583.81;;;17.21;44.70
26839;BME280;40088;51.214;6.786;2023-02-26T04:22:23;101589.31;;;17.21;44.62
26839;BME280;40088;51.214;6.786;2023-02-26T04:32:24;101597.59;;;17.21;44.78
26839;BME280;40088;51.214;6.786;2023-02-26T04:42:24;101605.84;;;17.21;44.56
26839;BME280;40088;51.214;6.786;2023-02-26T04:52:24;101616.88;;;17.21;44.66
26839;BME280;40088;51.214;6.786;2023-02-26T05:02:25;101641.66;;;17.21;44.50
26839;BME280;40088;51.214;6.786;2023-02-26T05:12:25;101648.91;;;17.22;44.50
26839;BME280;40088;51.214;6.786;2023-02-26T05:22:25;101656.47;;;17.19;44.54
26839;BME280;40088;51.214;6.786;2023-02-26T05:32:26;101669.19;;;17.21;44.59
26839;BME280;40088;51.214;6.786;2023-02-26T05:42:26;101671.97;;;17.21;44.45
26839;BME280;40088;51.214;6.786;2023-02-26T05:52:27;101691.41;;;17.19;44.46
26839;BME280;40088;51.214;6.786;2023-02-26T06:02:27;101708.81;;;17.19;44.53
26839;BME280;40088;51.214;6.786;2023-02-26T06:12:27;101722.75;;;17.18;44.32
26839;BME280;40088;51.214;6.786;2023-02-26T06:22:28;101728.28;;;17.18;44.33
26839;BME280;40088;51.214;6.786;2023-02-26T06:32:28;101758.38;;;17.19;44.23
26839;BME280;40088;51.214;6.786;2023-02-26T06:42:29;101771.47;;;17.17;44.47
26839;BME280;40088;51.214;6.786;2023-02-26T06:52:29;101780.41;;;17.19;44.20
26839;BME280;40088;51.214;6.786;2023-02-26T07:02:29;101794.38;;;17.18;44.41
26839;BME280;40088;51.214;6.786;2023-02-26T07:12:30;101820.03;;;17.18;44.39
26839;BME280;40088;51.214;6.786;2023-02-26T07:22:30;101853.25;;;17.17;44.21
26839;BME280;40088;51.214;6.786;2023-02-26T07:32:31;101864.09;;;17.18;44.12
26839;BME280;40088;51.214;6.786;2023-02-26T07:42:31;101878.72;;;17.19;44.20
26839;BME280;40088;51.214;6.786;2023-02-26T07:52:31;101877.84;;;17.18;44.12
26839;BME280;40088;51.214;6.786;2023-02-26T08:02:32;101899.72;;;17.20;44.04
26839;BME280;40088;51.214;6.786;2023-02-26T08:12:32;101920.22;;;17.17;44.21
26839;BME280;40088;51.214;6.786;2023-02-26T08:22:32;101914.69;;;17.17;43.98
26839;BME280;40088;51.214;6.786;2023-02-26T08:32:33;101928.47;;;17.17;43.91
26839;BME280;40088;51.214;6.786;2023-02-26T08:42:34;101944.81;;;17.19;44.01
26839;BME280;40088;51.214;6.786;2023-02-26T08:52:34;101964.28;;;17.17;43.91
26839;BME280;40088;51.214;6.786;2023-02-26T09:02:36;101976.16;;;17.18;43.82
26839;BME280;40088;51.214;6.786;2023-02-26T09:12:36;101986.31;;;17.17;43.87
26839;BME280;40088;51.214;6.786;2023-02-26T09:22:36;101999.06;;;17.18;43.82
26839;BME280;40088;51.214;6.786;2023-02-26T09:32:37;102013.84;;;17.17;44.06
26839;BME280;40088;51.214;6.786;2023-02-26T09:53:16;102035.03;;;17.17;43.84
26839;BME280;40088;51.214;6.786;2023-02-26T10:03:30;102052.41;;;17.17;43.84
26839;BME280;40088;51.214;6.786;2023-02-26T10:13:42;102052.41;;;17.17;43.78
26839;BME280;40088;51.214;6.786;2023-02-26T10:23:48;102060.69;;;17.17;43.72
26839;BME280;40088;51.214;6.786;2023-02-26T10:34:22;102056.91;;;17.18;43.64
26839;BME280;40088;51.214;6.786;2023-02-26T10:44:29;102085.47;;;17.17;43.71
26839;BME280;40088;51.214;6.786;2023-02-26T10:54:37;102095.47;;;17.18;43.86
26839;BME280;40088;51.214;6.786;2023-02-26T11:04:38;102079.97;;;17.17;43.72
26839;BME280;40088;51.214;6.786;2023-02-26T11:14:41;102086.34;;;17.18;43.67
26839;BME280;40088;51.214;6.786;2023-02-26T11:24:49;102090.13;;;17.17;43.82
26839;BME280;40088;51.214;6.786;2023-02-26T11:34:51;102086.34;;;17.18;43.52
26839;BME280;40088;51.214;6.786;2023-02-26T11:44:53;102097.34;;;17.18;43.76
26839;BME280;40088;51.214;6.786;2023-02-26T11:55:01;102089.09;;;17.18;43.53
26839;BME280;40088;51.214;6.786;2023-02-26T12:05:05;102093.75;;;17.17;43.61
26839;BME280;40088;51.214;6.786;2023-02-26T12:15:20;102090.81;;;17.19;43.57
26839;BME280;40088;51.214;6.786;2023-02-26T12:36:05;102091.00;;;17.17;43.58
26839;BME280;40088;51.214;6.786;2023-02-26T12:57:10;102087.19;;;17.18;43.33
26839;BME280;40088;51.214;6.786;2023-02-26T13:17:39;102083.41;;;17.19;43.50
26839;BME280;40088;51.214;6.786;2023-02-26T13:27:44;102082.72;;;17.17;43.51
26839;BME280;40088;51.214;6.786;2023-02-26T13:37:48;102081.69;;;17.18;43.38
26839;BME280;40088;51.214;6.786;2023-02-26T14:28:44;102074.47;;;17.17;43.32
26839;BME280;40088;51.214;6.786;2023-02-26T14:38:46;102077.22;;;17.17;43.42
26839;BME280;40088;51.214;6.786;2023-02-26T14:48:47;102091.00;;;17.17;43.32
26839;BME280;40088;51.214;6.786;2023-02-26T14:59:14;102079.97;;;17.17;43.17
26839;BME280;40088;51.214;6.786;2023-02-26T15:09:24;102085.47;;;17.17;42.96
26839;BME280;40088;51.214;6.786;2023-02-26T15:29:40;102102.88;;;17.18;43.10
26839;BME280;40088;51.214;6.786;2023-02-26T15:39:40;102105.63;;;17.18;43.04
26839;BME280;40088;51.214;6.786;2023-02-26T15:49:44;102103.91;;;17.17;43.10
26839;BME280;40088;51.214;6.786;2023-02-26T15:59:51;102120.25;;;17.18;42.86
26839;BME280;40088;51.214;6.786;2023-02-26T16:09:53;102112.16;;;17.17;43.07
26839;BME280;40088;51.214;6.786;2023-02-26T16:19:56;102122.16;;;17.18;43.00
26839;BME280;40088;51.214;6.786;2023-02-26T16:29:59;102129.53;;;17.17;42.87
26839;BME280;40088;51.214;6.786;2023-02-26T16:50:18;102153.31;;;17.18;42.81
26839;BME280;40088;51.214;6.786;2023-02-26T17:00:25;102157.09;;;17.17;42.76
26839;BME280;40088;51.214;6.786;2023-02-26T17:10:42;102173.63;;;17.17;42.96
26839;BME280;40088;51.214;6.786;2023-02-26T17:20:43;102189.28;;;17.17;42.81
26839;BME280;40088;51.214;6.786;2023-02-26T17:30:43;102201.31;;;17.16;42.97
26839;BME280;40088;51.214;6.786;2023-02-26T17:40:45;102213.22;;;17.16;42.96
26839;BME280;40088;51.214;6.786;2023-02-26T17:50:52;102227.00;;;17.16;42.96
26839;BME280;40088;51.214;6.786;2023-02-26T18:00:54;102239.72;;;17.17;42.99
26839;BME280;40088;51.214;6.786;2023-02-26T18:10:55;102243.53;;;17.16;42.98
26839;BME280;40088;51.214;6.786;2023-02-26T18:20:56;102243.53;;;17.16;42.90
26839;BME280;40088;51.214;6.786;2023-02-26T18:30:56;102244.50;;;17.15;42.85
26839;BME280;40088;51.214;6.786;2023-02-26T18:40:57;102249.03;;;17.16;43.01
26839;BME280;40088;51.214;6.786;2023-02-26T18:50:58;102252.78;;;17.15;43.06
26839;BME280;40088;51.214;6.786;2023-02-26T19:00:58;102265.56;;;17.16;42.91
26839;BME280;40088;51.214;6.786;2023-02-26T19:11:01;102261.03;;;17.15;42.85
26839;BME280;40088;51.214;6.786;2023-02-26T19:21:01;102273.94;;;17.15;42.84
26839;BME280;40088;51.214;6.786;2023-02-26T19:31:03;102284.97;;;17.15;42.86
26839;BME280;40088;51.214;6.786;2023-02-26T19:41:05;102305.97;;;17.16;42.98
26839;BME280;40088;51.214;6.786;2023-02-26T19:51:07;102307.88;;;17.15;42.93
26839;BME280;40088;51.214;6.786;2023-02-26T20:01:08;102314.25;;;17.16;42.70
26839;BME280;40088;51.214;6.786;2023-02-26T20:11:08;102327.16;;;17.15;42.75
26839;BME280;40088;51.214;6.786;2023-02-26T20:21:09;102331.81;;;17.15;42.84
26839;BME280;40088;51.214;6.786;2023-02-26T20:31:10;102340.91;;;17.15;42.89
26839;BME280;40088;51.214;6.786;2023-02-26T20:41:10;102347.28;;;17.16;42.78
26839;BME280;40088;51.214;6.786;2023-02-26T20:51:11;102357.44;;;17.15;42.63
26839;BME280;40088;51.214;6.786;2023-02-26T21:01:11;102369.19;;;17.17;42.67
26839;BME280;40088;51.214;6.786;2023-02-26T21:11:11;102367.47;;;17.16;42.84
26839;BME280;40088;51.214;6.786;2023-02-26T21:21:13;102373.97;;;17.15;42.78
26839;BME280;40088;51.214;6.786;2023-02-26T21:31:18;102380.34;;;17.16;42.83
26839;BME280;40088;51.214;6.786;2023-02-26T21:41:18;102391.38;;;17.16;42.91
26839;BME280;40088;51.214;6.786;2023-02-26T21:51:20;102391.38;;;17.16;42.92
26839;BME280;40088;51.214;6.786;2023-02-26T22:01:21;102393.25;;;17.15;42.83
26839;BME280;40088;51.214;6.786;2023-02-26T22:11:21;102395.16;;;17.15;43.05
26839;BME280;40088;51.214;6.786;2023-02-26T22:21:21;102393.25;;;17.15;43.06
26839;BME280;40088;51.214;6.786;2023-02-26T22:31:22;102389.66;;;17.15;42.85
26839;BME280;40088;51.214;6.786;2023-02-26T22:41:23;102390.50;;;17.15;42.69
26839;BME280;40088;51.214;6.786;2023-02-26T22:51:23;102397.03;;;17.14;42.79
26839;BME280;40088;51.214;6.786;2023-02-26T23:01:23;102405.31;;;17.14;42.61
26839;BME280;40088;51.214;6.786;2023-02-26T23:11:24;102402.72;;;17.13;42.78
26839;BME280;40088;51.214;6.786;2023-02-26T23:21:25;102399.97;;;17.13;42.80
26839;BME280;40088;51.214;6.786;2023-02-26T23:31:26;102412.00;;;17.12;43.13
26839;BME280;40088;51.214;6.786;2023-02-26T23:41:27;102423.16;;;17.10;42.58
26839;BME280;40088;51.214;6.786;2023-02-26T23:51:28;102419.41;;;17.11;42.56
